Time;durP1;ratioP1;P1;durP2;ratioP2;P2;SDS_P1;SDS_P2;PMS_P1;PMS_P2;Temp;Humidity;BMP_temperature;BMP_pressure;BME280_temperature;BME280_humidity;BME280_pressure;Samples;Min_cycle;Max_cycle;Signal;HPM_P1;HPM_P2
2024/01/21 00:02:21;;;;;;;77.43;30.30;;;;;;;;;;4960072;28;20446;-77
2024/01/21 00:04:48;;;;;;;72.00;28.80;;;;;;;;;;4939064;28;20468;-76
2024/01/21 00:07:14;;;;;;;76.93;28.37;;;;;;;;;;4921533;28;20430;-78
2024/01/21 00:09:41;;;;;;;86.33;29.00;;;;;;;;;;4951641;28;20437;-77
2024/01/21 00:12:07;;;;;;;76.67;28.97;;;;;;;;;;4928728;28;22810;-71
2024/01/21 00:14:36;;;;;;;71.57;28.20;;;;;;;;;;4986576;28;20531;-76
2024/01/21 00:17:04;;;;;;;75.57;29.93;;;;;;;;;;4864798;28;20414;-76
2024/01/21 00:19:31;;;;;;;78.23;29.83;;;;;;;;;;4853919;28;20496;-75
2024/01/21 00:21:57;;;;;;;75.53;28.97;;;;;;;;;;4897482;28;20457;-76
2024/01/21 00:24:24;;;;;;;169.93;30.67;;;;;;;;;;5022342;28;20437;-76
2024/01/21 00:26:50;;;;;;;83.40;30.37;;;;;;;;;;4961587;28;20513;-71
2024/01/21 00:29:16;;;;;;;76.57;30.60;;;;;;;;;;4921465;28;20614;-76
2024/01/21 00:31:43;;;;;;;71.97;29.30;;;;;;;;;;4925686;28;20533;-74
2024/01/21 00:34:09;;;;;;;89.57;29.13;;;;;;;;;;4942791;28;20453;-76
2024/01/21 00:36:35;;;;;;;77.97;29.17;;;;;;;;;;4947242;28;20433;-75
2024/01/21 00:39:01;;;;;;;101.80;31.67;;;;;;;;;;4900709;28;20831;-71
2024/01/21 00:41:27;;;;;;;84.60;34.00;;;;;;;;;;5006173;28;20433;-76
2024/01/21 00:43:53;;;;;;;76.23;30.00;;;;;;;;;;4994521;28;20463;-76
2024/01/21 00:46:20;;;;;;;73.47;29.20;;;;;;;;;;4999488;28;20992;-76
2024/01/21 00:48:46;;;;;;;71.33;28.80;;;;;;;;;;4951309;28;20516;-72
2024/01/21 00:51:12;;;;;;;71.40;29.60;;;;;;;;;;4928077;28;22422;-75
2024/01/21 00:53:38;;;;;;;68.90;28.43;;;;;;;;;;4996620;28;20451;-76
2024/01/21 00:56:04;;;;;;;65.97;28.20;;;;;;;;;;4899050;28;20812;-76
2024/01/21 00:58:31;;;;;;;72.37;27.90;;;;;;;;;;4878651;28;20426;-76
2024/01/21 01:00:57;;;;;;;91.70;30.90;;;;;;;;;;4918634;28;20868;-75
2024/01/21 01:03:24;;;;;;;71.03;28.63;;;;;;;;;;4945057;28;20441;-76
2024/01/21 01:05:50;;;;;;;79.40;30.17;;;;;;;;;;4984212;28;20482;-71
2024/01/21 01:08:20;;;;;;;72.53;29.43;;;;;;;;;;4942291;28;20420;-76
2024/01/21 01:10:46;;;;;;;70.97;29.93;;;;;;;;;;4889510;28;20425;-76
2024/01/21 01:13:12;;;;;;;73.83;29.80;;;;;;;;;;4873373;28;20418;-76
2024/01/21 01:15:39;;;;;;;76.53;31.83;;;;;;;;;;4909295;28;20453;-75
2024/01/21 01:18:05;;;;;;;73.23;30.83;;;;;;;;;;4879218;28;20512;-76
2024/01/21 01:20:31;;;;;;;76.07;30.93;;;;;;;;;;5020557;28;20475;-76
2024/01/21 01:22:58;;;;;;;85.97;30.13;;;;;;;;;;5006189;28;21013;-73
2024/01/21 01:25:26;;;;;;;72.50;29.90;;;;;;;;;;5026210;28;21720;-76
2024/01/21 01:27:52;;;;;;;86.87;31.17;;;;;;;;;;5022236;28;20911;-76
2024/01/21 01:30:19;;;;;;;70.77;28.57;;;;;;;;;;5019595;28;20414;-76
2024/01/21 01:32:45;;;;;;;74.57;29.77;;;;;;;;;;5022009;28;20449;-75
2024/01/21 01:35:11;;;;;;;103.03;28.90;;;;;;;;;;5035969;28;20445;-76
2024/01/21 01:37:37;;;;;;;106.60;28.80;;;;;;;;;;5026995;28;21061;-76
2024/01/21 01:40:04;;;;;;;59.90;24.73;;;;;;;;;;5020882;28;20956;-76
2024/01/21 01:42:30;;;;;;;109.03;26.90;;;;;;;;;;4979357;28;20961;-75
2024/01/21 01:44:56;;;;;;;59.07;25.03;;;;;;;;;;5029553;28;20479;-73
2024/01/21 01:47:23;;;;;;;67.03;24.43;;;;;;;;;;5028364;28;20811;-76
2024/01/21 01:49:49;;;;;;;62.37;26.07;;;;;;;;;;5012887;28;20753;-76
2024/01/21 01:52:16;;;;;;;66.23;23.70;;;;;;;;;;5027428;28;20428;-74
2024/01/21 01:54:44;;;;;;;62.90;24.43;;;;;;;;;;5020591;28;20472;-76
2024/01/21 01:57:11;;;;;;;57.77;24.67;;;;;;;;;;5023280;28;21241;-77
2024/01/21 01:59:39;;;;;;;57.23;24.07;;;;;;;;;;5022864;28;20437;-76
2024/01/21 02:02:05;;;;;;;132.20;28.27;;;;;;;;;;5019104;28;20441;-76
2024/01/21 02:04:31;;;;;;;91.83;25.97;;;;;;;;;;5027465;28;20452;-74
2024/01/21 02:06:58;;;;;;;67.20;25.17;;;;;;;;;;5029151;28;20443;-75
2024/01/21 02:09:24;;;;;;;65.77;23.57;;;;;;;;;;5022210;28;20425;-75
2024/01/21 02:11:50;;;;;;;54.20;22.40;;;;;;;;;;5017665;28;20449;-76
2024/01/21 02:14:16;;;;;;;84.03;24.83;;;;;;;;;;4938228;28;21144;-76
2024/01/21 02:16:43;;;;;;;121.40;25.33;;;;;;;;;;5021168;28;20443;-73
2024/01/21 02:19:27;;;;;;;59.43;23.50;;;;;;;;;;5025039;28;20475;-76
2024/01/21 02:21:53;;;;;;;69.43;25.63;;;;;;;;;;5017977;28;20499;-75
2024/01/21 02:24:20;;;;;;;64.07;24.50;;;;;;;;;;5017925;28;20516;-76
2024/01/21 02:26:48;;;;;;;72.13;22.97;;;;;;;;;;5028081;28;20580;-76
2024/01/21 02:29:15;;;;;;;53.50;22.77;;;;;;;;;;5026283;28;20428;-75
2024/01/21 02:31:41;;;;;;;63.47;24.63;;;;;;;;;;5024349;28;20857;-75
2024/01/21 02:34:07;;;;;;;61.83;24.33;;;;;;;;;;5023327;28;20508;-76
2024/01/21 02:36:33;;;;;;;59.40;23.90;;;;;;;;;;5033907;28;20832;-75
2024/01/21 02:38:59;;;;;;;53.47;22.67;;;;;;;;;;5031116;28;20939;-75
2024/01/21 02:41:25;;;;;;;60.33;22.20;;;;;;;;;;5021790;28;20437;-76
2024/01/21 02:43:51;;;;;;;113.33;25.30;;;;;;;;;;5020946;28;20437;-75
2024/01/21 02:46:18;;;;;;;162.73;25.97;;;;;;;;;;5030682;28;20468;-76
2024/01/21 02:48:44;;;;;;;68.90;24.13;;;;;;;;;;5028036;28;20769;-76
2024/01/21 02:51:14;;;;;;;70.30;24.53;;;;;;;;;;4977303;28;20441;-76
2024/01/21 02:53:40;;;;;;;80.40;25.67;;;;;;;;;;4956048;28;20429;-76
2024/01/21 02:56:06;;;;;;;64.20;23.17;;;;;;;;;;5022890;28;20587;-75
2024/01/21 02:58:32;;;;;;;110.00;25.80;;;;;;;;;;5028806;28;21036;-75
2024/01/21 03:00:58;;;;;;;70.07;24.37;;;;;;;;;;5032442;28;20500;-76
2024/01/21 03:03:25;;;;;;;76.83;25.90;;;;;;;;;;5025655;28;20426;-73
2024/01/21 03:05:51;;;;;;;66.93;25.47;;;;;;;;;;4973181;28;20956;-76
2024/01/21 03:08:17;;;;;;;63.23;24.10;;;;;;;;;;5028713;28;20479;-76
2024/01/21 03:10:43;;;;;;;133.50;26.57;;;;;;;;;;5025429;28;20421;-76
2024/01/21 03:13:10;;;;;;;70.17;25.30;;;;;;;;;;5007775;28;20442;-76
2024/01/21 03:15:36;;;;;;;105.10;27.63;;;;;;;;;;5024198;28;20506;-76
2024/01/21 03:18:02;;;;;;;76.43;27.30;;;;;;;;;;5021211;28;20440;-76
2024/01/21 03:20:28;;;;;;;104.47;27.13;;;;;;;;;;5021079;28;20433;-76
2024/01/21 03:22:54;;;;;;;70.27;24.83;;;;;;;;;;5028893;28;20428;-76
2024/01/21 03:25:20;;;;;;;94.53;24.53;;;;;;;;;;4879475;28;20539;-76
2024/01/21 03:27:46;;;;;;;75.60;26.53;;;;;;;;;;5020838;28;20430;-76
2024/01/21 03:30:12;;;;;;;64.70;23.50;;;;;;;;;;5017734;28;20448;-75
2024/01/21 03:32:38;;;;;;;63.43;25.23;;;;;;;;;;5024394;28;20425;-76
2024/01/21 03:35:05;;;;;;;66.63;23.83;;;;;;;;;;5026032;28;20763;-74
2024/01/21 03:37:31;;;;;;;68.00;23.43;;;;;;;;;;5031372;28;20972;-76
2024/01/21 03:39:57;;;;;;;60.10;24.13;;;;;;;;;;5023446;28;20436;-75
2024/01/21 03:42:23;;;;;;;60.67;23.23;;;;;;;;;;5026530;28;20445;-75
2024/01/21 03:44:50;;;;;;;62.63;23.30;;;;;;;;;;5028337;28;20492;-76
2024/01/21 03:47:16;;;;;;;58.13;23.10;;;;;;;;;;5025712;28;20425;-76
2024/01/21 03:49:42;;;;;;;59.17;23.63;;;;;;;;;;5020515;28;20941;-76
2024/01/21 03:52:08;;;;;;;59.73;22.10;;;;;;;;;;5029393;28;20429;-75
2024/01/21 03:54:34;;;;;;;59.77;23.87;;;;;;;;;;5029306;28;20508;-75
2024/01/21 03:57:01;;;;;;;63.67;23.57;;;;;;;;;;5023403;28;20853;-75
2024/01/21 03:59:27;;;;;;;72.47;25.80;;;;;;;;;;5024642;28;20434;-76
2024/01/21 04:01:53;;;;;;;67.17;25.10;;;;;;;;;;5026063;28;20445;-76
2024/01/21 04:04:19;;;;;;;58.43;24.13;;;;;;;;;;5021874;28;20453;-75
2024/01/21 04:06:45;;;;;;;70.00;25.73;;;;;;;;;;5026771;28;20574;-76
2024/01/21 04:09:19;;;;;;;63.87;23.40;;;;;;;;;;5024464;28;20437;-76
2024/01/21 04:11:45;;;;;;;65.87;25.53;;;;;;;;;;5002876;28;20472;-76
2024/01/21 04:14:12;;;;;;;62.00;24.13;;;;;;;;;;5027352;28;20468;-75
2024/01/21 04:16:39;;;;;;;83.10;24.97;;;;;;;;;;5017638;28;20432;-76
2024/01/21 04:19:05;;;;;;;59.97;23.97;;;;;;;;;;5019485;28;20453;-74
2024/01/21 04:21:32;;;;;;;76.50;27.03;;;;;;;;;;5016743;28;20960;-76
2024/01/21 04:23:59;;;;;;;58.97;24.10;;;;;;;;;;5022052;28;20432;-76
2024/01/21 04:26:25;;;;;;;60.30;23.70;;;;;;;;;;5029860;28;20964;-76
2024/01/21 04:28:51;;;;;;;91.13;25.77;;;;;;;;;;4899741;28;20537;-76
2024/01/21 04:31:18;;;;;;;62.83;25.63;;;;;;;;;;5022959;28;20491;-75
2024/01/21 04:33:44;;;;;;;66.10;25.40;;;;;;;;;;5009297;28;21092;-75
2024/01/21 04:36:16;;;;;;;73.47;25.73;;;;;;;;;;5031918;28;20503;-75
2024/01/21 04:38:42;;;;;;;61.47;24.43;;;;;;;;;;5018909;28;20433;-75
2024/01/21 04:41:09;;;;;;;72.57;30.73;;;;;;;;;;5017409;28;20432;-76
2024/01/21 04:43:35;;;;;;;67.97;27.50;;;;;;;;;;5017506;28;20421;-76
2024/01/21 04:46:01;;;;;;;66.80;26.50;;;;;;;;;;5008363;28;20504;-75
2024/01/21 04:48:28;;;;;;;61.23;25.33;;;;;;;;;;5017871;28;20418;-76
2024/01/21 04:50:54;;;;;;;71.27;30.83;;;;;;;;;;5015305;28;20430;-76
2024/01/21 04:53:20;;;;;;;66.77;27.43;;;;;;;;;;5018619;28;20421;-76
2024/01/21 04:55:46;;;;;;;67.70;26.93;;;;;;;;;;5032851;28;20467;-76
2024/01/21 04:58:12;;;;;;;81.67;28.43;;;;;;;;;;5029582;28;20798;-75
2024/01/21 05:00:38;;;;;;;68.70;27.33;;;;;;;;;;5022570;28;20459;-76
2024/01/21 05:03:05;;;;;;;72.80;27.27;;;;;;;;;;5026621;28;20562;-76
2024/01/21 05:05:31;;;;;;;67.00;27.70;;;;;;;;;;5022944;28;20492;-75
2024/01/21 05:07:57;;;;;;;62.30;25.33;;;;;;;;;;5029299;28;20436;-76
2024/01/21 05:10:23;;;;;;;64.10;25.83;;;;;;;;;;5026367;28;20536;-76
2024/01/21 05:12:49;;;;;;;67.23;29.37;;;;;;;;;;5021541;28;20481;-75
2024/01/21 05:15:15;;;;;;;63.27;31.80;;;;;;;;;;5011761;28;20843;-76
2024/01/21 05:17:42;;;;;;;55.87;26.40;;;;;;;;;;5016556;28;20440;-75
2024/01/21 05:20:08;;;;;;;54.57;24.33;;;;;;;;;;4952200;28;20449;-75
2024/01/21 05:22:35;;;;;;;48.20;25.80;;;;;;;;;;5023830;28;20437;-76
2024/01/21 05:25:03;;;;;;;43.27;23.87;;;;;;;;;;5024655;28;20560;-75
2024/01/21 05:27:29;;;;;;;49.33;27.13;;;;;;;;;;5021126;28;21046;-76
2024/01/21 05:29:55;;;;;;;46.50;23.00;;;;;;;;;;5017281;28;20426;-76
2024/01/21 05:32:21;;;;;;;45.53;22.90;;;;;;;;;;5025760;28;20432;-76
2024/01/21 05:34:48;;;;;;;42.80;21.20;;;;;;;;;;5021072;28;20499;-76
2024/01/21 05:37:14;;;;;;;44.30;21.00;;;;;;;;;;5027267;28;20921;-76
2024/01/21 05:39:40;;;;;;;46.13;22.90;;;;;;;;;;4939652;28;20466;-76
2024/01/21 05:42:10;;;;;;;42.93;21.63;;;;;;;;;;4947402;28;21605;-76
2024/01/21 05:44:36;;;;;;;51.47;24.30;;;;;;;;;;5027243;28;20655;-76
2024/01/21 05:47:02;;;;;;;43.03;22.30;;;;;;;;;;5027656;28;20524;-76
2024/01/21 05:49:29;;;;;;;46.70;22.47;;;;;;;;;;5022586;28;20528;-76
2024/01/21 05:51:55;;;;;;;40.53;19.70;;;;;;;;;;5021087;28;20458;-75
2024/01/21 05:54:21;;;;;;;44.37;21.30;;;;;;;;;;5020269;28;20881;-75
2024/01/21 05:56:47;;;;;;;45.43;22.37;;;;;;;;;;5023794;28;20843;-76
2024/01/21 05:59:16;;;;;;;43.53;20.00;;;;;;;;;;5020259;28;20437;-76
2024/01/21 06:01:43;;;;;;;42.87;19.83;;;;;;;;;;5009463;28;20461;-76
2024/01/21 06:04:10;;;;;;;42.63;20.83;;;;;;;;;;5026824;28;20548;-76
2024/01/21 06:06:36;;;;;;;47.90;22.33;;;;;;;;;;5022557;28;20501;-76
2024/01/21 06:09:02;;;;;;;45.13;21.37;;;;;;;;;;5026558;28;21012;-76
2024/01/21 06:11:29;;;;;;;44.50;21.03;;;;;;;;;;5023867;28;20425;-76
2024/01/21 06:13:55;;;;;;;51.27;22.07;;;;;;;;;;5009829;28;20425;-76
2024/01/21 06:16:21;;;;;;;46.20;21.70;;;;;;;;;;5026195;28;20420;-76
2024/01/21 06:18:47;;;;;;;49.53;22.70;;;;;;;;;;5019964;28;20825;-76
2024/01/21 06:21:16;;;;;;;57.33;25.87;;;;;;;;;;5023161;28;20932;-76
2024/01/21 06:23:42;;;;;;;48.40;23.13;;;;;;;;;;5021737;28;20437;-76
2024/01/21 06:26:15;;;;;;;49.37;22.27;;;;;;;;;;5024945;28;20477;-76
2024/01/21 06:28:41;;;;;;;68.50;24.00;;;;;;;;;;5014590;28;20494;-76
2024/01/21 06:31:08;;;;;;;50.03;21.93;;;;;;;;;;5020115;28;20429;-75
2024/01/21 06:33:34;;;;;;;48.60;24.40;;;;;;;;;;5018977;28;20450;-75
2024/01/21 06:36:00;;;;;;;50.73;22.63;;;;;;;;;;5021528;28;20536;-77
2024/01/21 06:38:26;;;;;;;47.23;21.70;;;;;;;;;;5026535;28;20441;-76
2024/01/21 06:40:52;;;;;;;52.40;25.37;;;;;;;;;;5021625;28;20456;-76
2024/01/21 06:43:19;;;;;;;48.03;22.37;;;;;;;;;;5023922;28;20476;-76
2024/01/21 06:45:45;;;;;;;49.33;23.03;;;;;;;;;;5001228;28;20474;-76
2024/01/21 06:48:11;;;;;;;48.70;22.97;;;;;;;;;;5028778;28;20425;-76
2024/01/21 06:50:37;;;;;;;46.47;21.80;;;;;;;;;;4971274;28;20445;-76
2024/01/21 06:53:03;;;;;;;47.40;22.97;;;;;;;;;;5008066;28;21168;-76
2024/01/21 06:55:29;;;;;;;54.30;26.33;;;;;;;;;;5016557;28;20457;-76
2024/01/21 06:57:55;;;;;;;51.70;25.23;;;;;;;;;;5024324;28;20454;-75
2024/01/21 07:00:22;;;;;;;49.50;26.17;;;;;;;;;;5022983;28;20448;-76
2024/01/21 07:02:48;;;;;;;54.03;25.33;;;;;;;;;;4978226;28;20775;-76
2024/01/21 07:05:14;;;;;;;52.93;24.90;;;;;;;;;;5025785;28;20463;-77
2024/01/21 07:07:40;;;;;;;51.67;27.23;;;;;;;;;;5041909;28;20643;-76
2024/01/21 07:10:07;;;;;;;50.93;23.97;;;;;;;;;;5022632;28;20519;-75
2024/01/21 07:12:33;;;;;;;66.23;29.43;;;;;;;;;;5021996;28;20871;-76
2024/01/21 07:14:59;;;;;;;67.77;32.00;;;;;;;;;;5029534;28;21003;-76
2024/01/21 07:17:25;;;;;;;54.87;25.83;;;;;;;;;;5031127;28;20438;-76
2024/01/21 07:19:53;;;;;;;61.83;32.67;;;;;;;;;;4981705;28;20453;-71
2024/01/21 07:22:20;;;;;;;51.97;27.67;;;;;;;;;;5004679;28;20432;-76
2024/01/21 07:24:47;;;;;;;50.77;24.93;;;;;;;;;;5027304;28;21037;-73
2024/01/21 07:27:13;;;;;;;53.03;26.03;;;;;;;;;;5026761;28;20961;-76
2024/01/21 07:29:39;;;;;;;51.07;24.23;;;;;;;;;;5029011;28;20433;-76
2024/01/21 07:32:05;;;;;;;57.00;25.73;;;;;;;;;;5027089;28;21108;-76
2024/01/21 07:34:31;;;;;;;64.97;27.70;;;;;;;;;;5015710;28;20449;-76
2024/01/21 07:36:57;;;;;;;58.60;27.17;;;;;;;;;;5025477;28;20439;-76
2024/01/21 07:39:24;;;;;;;49.97;24.70;;;;;;;;;;5010128;28;20441;-76
2024/01/21 07:41:50;;;;;;;51.23;24.43;;;;;;;;;;5021717;28;20445;-76
2024/01/21 07:44:17;;;;;;;74.63;41.03;;;;;;;;;;5028451;28;20460;-76
2024/01/21 07:46:43;;;;;;;90.27;42.47;;;;;;;;;;5027386;28;20535;-76
2024/01/21 07:49:09;;;;;;;77.70;37.33;;;;;;;;;;5029721;28;20433;-76
2024/01/21 07:51:35;;;;;;;63.27;31.73;;;;;;;;;;5028872;28;20418;-76
2024/01/21 07:54:01;;;;;;;88.80;48.23;;;;;;;;;;5021459;28;20557;-76
2024/01/21 07:56:27;;;;;;;178.20;111.53;;;;;;;;;;5023101;28;20936;-76
2024/01/21 07:58:53;;;;;;;74.87;40.97;;;;;;;;;;5021164;28;20434;-76
2024/01/21 08:01:21;;;;;;;54.87;28.03;;;;;;;;;;5020952;28;20469;-76
2024/01/21 08:03:48;;;;;;;54.50;27.40;;;;;;;;;;4952908;28;21002;-76
2024/01/21 08:06:15;;;;;;;57.67;31.03;;;;;;;;;;5022759;28;20461;-76
2024/01/21 08:08:41;;;;;;;74.50;39.60;;;;;;;;;;5026136;28;20428;-80
2024/01/21 08:11:07;;;;;;;80.00;41.70;;;;;;;;;;5008634;28;20527;-77
2024/01/21 08:13:34;;;;;;;66.43;36.77;;;;;;;;;;5018181;28;20455;-78
2024/01/21 08:16:00;;;;;;;60.67;31.13;;;;;;;;;;5021759;28;20445;-76
2024/01/21 08:18:26;;;;;;;86.77;51.50;;;;;;;;;;5023258;28;20956;-75
2024/01/21 08:20:52;;;;;;;62.37;35.53;;;;;;;;;;5022766;28;20458;-76
2024/01/21 08:23:19;;;;;;;52.40;25.77;;;;;;;;;;5025555;28;20424;-76
2024/01/21 08:25:45;;;;;;;50.00;24.30;;;;;;;;;;5020363;28;20469;-75
2024/01/21 08:28:11;;;;;;;51.43;25.13;;;;;;;;;;5027342;28;20431;-76
2024/01/21 08:30:38;;;;;;;54.97;25.67;;;;;;;;;;5027090;28;20421;-76
2024/01/21 08:33:04;;;;;;;52.93;24.50;;;;;;;;;;5024347;28;20865;-75
2024/01/21 08:35:32;;;;;;;52.10;24.67;;;;;;;;;;5025909;28;20532;-75
2024/01/21 08:37:58;;;;;;;49.73;23.67;;;;;;;;;;5025266;28;20486;-75
2024/01/21 08:40:24;;;;;;;46.00;23.00;;;;;;;;;;5025793;28;20913;-76
2024/01/21 08:42:51;;;;;;;50.37;24.30;;;;;;;;;;5024902;28;20535;-76
2024/01/21 08:45:17;;;;;;;44.53;22.77;;;;;;;;;;5027663;28;20565;-80
2024/01/21 08:47:43;;;;;;;48.23;22.73;;;;;;;;;;5030561;28;20913;-79
2024/01/21 08:50:10;;;;;;;46.83;23.13;;;;;;;;;;5031912;28;20917;-80
2024/01/21 08:52:36;;;;;;;70.53;36.13;;;;;;;;;;5013944;28;20851;-80
2024/01/21 08:55:04;;;;;;;106.53;61.23;;;;;;;;;;5005860;28;20470;-79
2024/01/21 08:57:30;;;;;;;73.30;43.20;;;;;;;;;;5026292;28;20433;-79
2024/01/21 08:59:56;;;;;;;59.20;33.20;;;;;;;;;;5023711;28;20445;-78
2024/01/21 09:02:22;;;;;;;51.97;27.77;;;;;;;;;;5019398;28;20437;-79
2024/01/21 09:04:49;;;;;;;52.97;26.73;;;;;;;;;;5031865;28;20464;-79
2024/01/21 09:07:15;;;;;;;50.93;25.73;;;;;;;;;;5036891;28;20439;-79
2024/01/21 09:09:41;;;;;;;47.43;24.93;;;;;;;;;;5034006;28;20777;-79
2024/01/21 09:12:07;;;;;;;63.13;30.07;;;;;;;;;;4854791;28;20417;-78
2024/01/21 09:14:34;;;;;;;77.70;44.10;;;;;;;;;;5019468;28;21155;-78
2024/01/21 09:17:00;;;;;;;79.10;45.83;;;;;;;;;;5033578;28;20433;-78
2024/01/21 09:19:26;;;;;;;77.47;43.73;;;;;;;;;;5034361;28;20983;-79
2024/01/21 09:21:52;;;;;;;92.07;52.80;;;;;;;;;;4998003;28;20472;-79
2024/01/21 09:24:21;;;;;;;67.10;39.67;;;;;;;;;;4940670;28;20465;-79
2024/01/21 09:26:47;;;;;;;67.73;39.50;;;;;;;;;;5031551;28;20612;-79
2024/01/21 09:29:13;;;;;;;48.10;27.93;;;;;;;;;;5030438;28;20610;-78
2024/01/21 09:31:39;;;;;;;66.50;37.67;;;;;;;;;;5032414;28;20429;-78
2024/01/21 09:34:05;;;;;;;87.83;47.43;;;;;;;;;;5031534;28;20269;-79
2024/01/21 09:36:34;;;;;;;100.90;52.93;;;;;;;;;;5031339;28;20459;-79
2024/01/21 09:39:01;;;;;;;81.17;45.53;;;;;;;;;;5011625;28;20861;-79
2024/01/21 09:41:37;;;;;;;86.70;48.00;;;;;;;;;;5014617;28;20853;-79
2024/01/21 09:44:04;;;;;;;80.63;45.63;;;;;;;;;;5025540;28;20949;-80
2024/01/21 09:46:30;;;;;;;92.73;51.27;;;;;;;;;;5027855;28;20917;-80
2024/01/21 09:48:57;;;;;;;111.47;57.83;;;;;;;;;;5017610;28;20191;-79
2024/01/21 09:51:24;;;;;;;81.60;46.90;;;;;;;;;;5032840;28;20182;-79
2024/01/21 09:53:50;;;;;;;92.73;51.77;;;;;;;;;;5029329;28;20486;-79
2024/01/21 09:56:17;;;;;;;80.40;44.23;;;;;;;;;;5013516;28;20535;-79
2024/01/21 09:58:46;;;;;;;131.17;68.47;;;;;;;;;;4992472;28;20500;-80
2024/01/21 10:01:12;;;;;;;104.83;57.57;;;;;;;;;;4911099;28;20202;-79
2024/01/21 10:03:39;;;;;;;138.90;79.23;;;;;;;;;;5022853;28;20183;-79
2024/01/21 10:06:05;;;;;;;121.43;67.43;;;;;;;;;;5030425;28;20317;-79
2024/01/21 10:08:31;;;;;;;86.00;49.73;;;;;;;;;;5010197;28;20533;-78
2024/01/21 10:11:03;;;;;;;43.27;25.57;;;;;;;;;;5028196;28;20735;-78
2024/01/21 10:13:39;;;;;;;28.40;18.37;;;;;;;;;;5029926;28;20235;-79
2024/01/21 10:16:07;;;;;;;26.17;16.73;;;;;;;;;;5000592;28;20213;-79
2024/01/21 10:18:34;;;;;;;27.20;16.73;;;;;;;;;;5041584;28;20280;-79
2024/01/21 10:21:03;;;;;;;26.63;17.53;;;;;;;;;;5011307;28;20686;-79
2024/01/21 10:23:29;;;;;;;25.47;17.10;;;;;;;;;;4994619;28;20297;-79
2024/01/21 10:25:55;;;;;;;28.97;16.57;;;;;;;;;;4881517;28;20219;-79
2024/01/21 10:28:22;;;;;;;27.87;16.73;;;;;;;;;;5003719;28;20559;-79
2024/01/21 10:30:48;;;;;;;27.27;16.77;;;;;;;;;;5030887;28;20175;-80
2024/01/21 10:33:15;;;;;;;28.53;17.47;;;;;;;;;;5000212;28;20197;-80
2024/01/21 10:35:42;;;;;;;26.37;16.60;;;;;;;;;;4941087;28;20296;-79
2024/01/21 10:38:11;;;;;;;31.37;18.27;;;;;;;;;;4945602;28;20568;-79
2024/01/21 10:40:44;;;;;;;30.40;18.70;;;;;;;;;;4995851;28;20205;-79
2024/01/21 10:43:12;;;;;;;27.43;17.73;;;;;;;;;;4944503;28;20190;-79
2024/01/21 10:45:38;;;;;;;29.20;18.17;;;;;;;;;;4959949;28;20768;-79
2024/01/21 10:48:06;;;;;;;27.57;17.00;;;;;;;;;;4920151;28;20862;-79
2024/01/21 10:50:32;;;;;;;28.10;17.57;;;;;;;;;;4988392;28;20193;-79
2024/01/21 10:52:59;;;;;;;28.37;18.23;;;;;;;;;;4953096;28;20175;-81
2024/01/21 10:55:26;;;;;;;31.37;18.40;;;;;;;;;;4885384;28;20212;-79
2024/01/21 10:57:52;;;;;;;27.57;17.57;;;;;;;;;;4912656;28;20619;-79
2024/01/21 11:00:19;;;;;;;26.97;17.60;;;;;;;;;;4855460;28;20197;-79
2024/01/21 11:03:08;;;;;;;27.47;17.23;;;;;;;;;;4922981;28;20191;-82
2024/01/21 11:05:34;;;;;;;27.17;17.17;;;;;;;;;;4907315;28;20749;-79
2024/01/21 11:08:02;;;;;;;25.03;16.27;;;;;;;;;;4913877;28;20506;-81
2024/01/21 11:10:28;;;;;;;26.87;17.23;;;;;;;;;;4935369;28;20186;-80
2024/01/21 11:12:58;;;;;;;23.53;16.00;;;;;;;;;;4862661;28;20185;-80
2024/01/21 11:15:27;;;;;;;28.63;17.97;;;;;;;;;;4872221;28;20346;-79
2024/01/21 11:18:07;;;;;;;27.10;17.80;;;;;;;;;;4970806;28;20278;-79
2024/01/21 11:20:34;;;;;;;26.37;17.47;;;;;;;;;;4884956;28;20666;-79
2024/01/21 11:23:00;;;;;;;27.27;17.77;;;;;;;;;;4925744;28;20271;-81
2024/01/21 11:25:36;;;;;;;29.50;18.27;;;;;;;;;;4902204;28;20221;-80
2024/01/21 11:28:05;;;;;;;29.07;19.83;;;;;;;;;;4783361;28;20667;-79
2024/01/21 11:30:32;;;;;;;26.70;17.30;;;;;;;;;;4807758;28;20546;-79
2024/01/21 11:33:01;;;;;;;25.77;16.83;;;;;;;;;;4846471;28;20246;-80
2024/01/21 11:35:28;;;;;;;26.20;17.10;;;;;;;;;;4864722;28;22039;-79
2024/01/21 11:37:55;;;;;;;27.30;15.77;;;;;;;;;;4955853;28;20251;-80
2024/01/21 11:40:21;;;;;;;26.40;15.77;;;;;;;;;;4838901;28;20183;-80
2024/01/21 11:42:50;;;;;;;23.53;15.90;;;;;;;;;;4860407;28;20189;-79
2024/01/21 11:45:17;;;;;;;26.60;17.07;;;;;;;;;;4851207;28;20230;-77
2024/01/21 11:47:45;;;;;;;25.43;16.63;;;;;;;;;;4957406;28;20176;-78
2024/01/21 11:50:12;;;;;;;26.00;16.87;;;;;;;;;;4930967;28;20179;-78
2024/01/21 11:52:38;;;;;;;24.80;16.27;;;;;;;;;;5024015;28;20248;-78
2024/01/21 11:55:05;;;;;;;34.97;21.27;;;;;;;;;;4944662;28;20234;-78
2024/01/21 11:57:31;;;;;;;28.87;17.93;;;;;;;;;;4944510;28;20186;-81
2024/01/21 11:59:57;;;;;;;26.83;16.00;;;;;;;;;;4916526;28;20178;-79
2024/01/21 12:02:25;;;;;;;33.97;19.23;;;;;;;;;;5021496;28;20274;-76
2024/01/21 12:04:51;;;;;;;27.10;16.47;;;;;;;;;;5025381;28;20210;-78
2024/01/21 12:07:18;;;;;;;29.27;17.47;;;;;;;;;;4899904;28;20692;-79
2024/01/21 12:09:45;;;;;;;27.40;17.27;;;;;;;;;;4949200;28;20209;-78
2024/01/21 12:12:13;;;;;;;28.90;16.27;;;;;;;;;;4897862;28;20180;-79
2024/01/21 12:14:41;;;;;;;24.93;16.13;;;;;;;;;;5030910;28;20708;-76
2024/01/21 12:17:07;;;;;;;26.13;15.90;;;;;;;;;;4947693;28;20699;-85
2024/01/21 12:19:34;;;;;;;27.80;17.13;;;;;;;;;;5007252;28;20178;-76
2024/01/21 12:22:00;;;;;;;26.63;16.27;;;;;;;;;;4888725;28;20575;-72
2024/01/21 12:24:26;;;;;;;28.10;16.13;;;;;;;;;;4930748;28;20218;-74
2024/01/21 12:26:55;;;;;;;26.90;16.80;;;;;;;;;;4877721;28;20253;-74
2024/01/21 12:29:21;;;;;;;26.37;16.27;;;;;;;;;;4931443;28;22018;-74
2024/01/21 12:31:50;;;;;;;28.00;16.90;;;;;;;;;;4981833;28;20182;-73
2024/01/21 12:34:18;;;;;;;28.60;16.37;;;;;;;;;;4895994;28;20242;-73
2024/01/21 12:36:45;;;;;;;27.30;15.00;;;;;;;;;;4892299;28;20195;-71
2024/01/21 12:39:15;;;;;;;28.33;16.53;;;;;;;;;;4905952;28;20206;-74
2024/01/21 12:41:41;;;;;;;26.37;15.43;;;;;;;;;;4939921;28;20539;-75
2024/01/21 12:44:08;;;;;;;26.80;15.97;;;;;;;;;;4887796;28;20183;-84
2024/01/21 12:46:34;;;;;;;25.87;15.80;;;;;;;;;;4985566;28;20280;-77
2024/01/21 12:49:00;;;;;;;28.33;16.03;;;;;;;;;;4837371;28;20191;-75
2024/01/21 12:51:28;;;;;;;24.93;15.90;;;;;;;;;;4902875;28;20166;-75
2024/01/21 12:53:54;;;;;;;24.73;15.60;;;;;;;;;;4916964;28;20255;-81
2024/01/21 12:56:21;;;;;;;24.60;16.03;;;;;;;;;;4945912;28;21652;-75
2024/01/21 12:58:47;;;;;;;21.30;14.90;;;;;;;;;;4981992;28;20191;-76
2024/01/21 13:01:15;;;;;;;26.70;15.63;;;;;;;;;;4921017;28;20210;-76
2024/01/21 13:03:42;;;;;;;23.33;15.70;;;;;;;;;;4911810;28;20198;-78
2024/01/21 13:06:08;;;;;;;23.97;15.90;;;;;;;;;;4915744;28;20727;-78
2024/01/21 13:08:35;;;;;;;25.53;16.27;;;;;;;;;;4941461;28;20270;-78
2024/01/21 13:11:03;;;;;;;23.97;15.90;;;;;;;;;;4943844;28;20244;-81
2024/01/21 13:13:29;;;;;;;23.47;14.73;;;;;;;;;;4948227;28;20183;-77
2024/01/21 13:15:56;;;;;;;23.63;14.27;;;;;;;;;;4888320;28;20202;-76
2024/01/21 13:18:23;;;;;;;23.07;13.93;;;;;;;;;;4898643;28;20257;-76
2024/01/21 13:20:49;;;;;;;22.37;14.47;;;;;;;;;;4932853;28;20188;-80
2024/01/21 13:23:15;;;;;;;22.90;14.07;;;;;;;;;;4924175;28;20256;-78
2024/01/21 13:25:42;;;;;;;22.60;13.63;;;;;;;;;;4980482;28;20213;-77
2024/01/21 13:28:14;;;;;;;24.03;14.23;;;;;;;;;;4964501;28;20600;-77
2024/01/21 13:30:45;;;;;;;21.50;14.03;;;;;;;;;;4891726;28;20183;-78
2024/01/21 13:33:15;;;;;;;18.90;13.13;;;;;;;;;;5007833;28;20175;-78
2024/01/21 13:35:45;;;;;;;19.70;12.80;;;;;;;;;;4945289;28;20202;-78
2024/01/21 13:38:22;;;;;;;18.80;12.87;;;;;;;;;;4881172;28;20193;-78
2024/01/21 13:40:49;;;;;;;19.23;13.03;;;;;;;;;;5027857;28;20652;-79
2024/01/21 13:43:15;;;;;;;20.13;13.53;;;;;;;;;;4883664;28;20237;-78
2024/01/21 13:45:41;;;;;;;19.27;13.13;;;;;;;;;;4891612;28;20215;-79
2024/01/21 13:48:10;;;;;;;21.43;13.60;;;;;;;;;;4896239;28;21650;-78
2024/01/21 13:50:37;;;;;;;20.40;12.63;;;;;;;;;;4943403;28;20183;-78
2024/01/21 13:53:04;;;;;;;17.87;12.30;;;;;;;;;;4914578;28;20217;-82
2024/01/21 13:55:30;;;;;;;17.40;11.97;;;;;;;;;;4948970;28;20662;-77
2024/01/21 13:57:57;;;;;;;16.70;12.00;;;;;;;;;;4888591;28;20190;-79
2024/01/21 14:00:24;;;;;;;16.63;11.20;;;;;;;;;;4865932;28;20609;-77
2024/01/21 14:02:55;;;;;;;17.63;12.00;;;;;;;;;;4924253;28;20217;-81
2024/01/21 14:05:22;;;;;;;18.30;11.90;;;;;;;;;;4952956;28;21071;-78
2024/01/21 14:07:49;;;;;;;16.43;10.90;;;;;;;;;;4980487;28;20182;-78
2024/01/21 14:10:17;;;;;;;16.60;10.60;;;;;;;;;;4902835;28;20207;-78
2024/01/21 14:12:43;;;;;;;16.70;10.70;;;;;;;;;;4937003;28;20198;-78
2024/01/21 14:15:09;;;;;;;16.37;10.43;;;;;;;;;;4891882;28;21551;-81